Time;durP1;ratioP1;P1;durP2;ratioP2;P2;SDS_P1;SDS_P2;PMS_P1;PMS_P2;Temp;Humidity;BMP_temperature;BMP_pressure;BME280_temperature;BME280_humidity;BME280_pressure;Samples;Min_cycle;Max_cycle;Signal;HPM_P1;HPM_P2
2023/12/31 00:01:03;;;;;;;;;;;153.80;2252.80;;;;;;4959523;28;19997;-79
2023/12/31 00:03:29;;;;;;;;;;;153.70;2252.80;;;;;;4958833;28;19906;-78
2023/12/31 00:05:54;;;;;;;;;;;153.60;2252.80;;;;;;4976309;28;20378;-80
2023/12/31 00:08:20;;;;;;;;;;;128.80;2252.80;;;;;;4959114;28;19906;-78
2023/12/31 00:10:46;;;;;;;;;;;128.70;2252.80;;;;;;4958945;28;19914;-78
2023/12/31 00:13:11;;;;;;;;;;;128.50;2252.80;;;;;;4958779;28;19910;-78
2023/12/31 00:15:37;;;;;;;;;;;128.60;2252.80;;;;;;4952055;28;20000;-78
2023/12/31 00:18:02;;;;;;;;;;;128.60;2252.80;;;;;;4958137;28;19906;-78
2023/12/31 00:20:28;;;;;;;;;;;128.70;2252.80;;;;;;4959626;28;19906;-78
2023/12/31 00:22:54;;;;;;;;;;;128.80;2252.80;;;;;;4955066;28;19918;-78
2023/12/31 00:25:19;;;;;;;;;;;128.90;2252.80;;;;;;4956224;28;19907;-78
2023/12/31 00:27:45;;;;;;;;;;;128.90;2252.80;;;;;;4958792;28;20013;-78
2023/12/31 00:30:11;;;;;;;;;;;128.90;2252.80;;;;;;4975551;28;19922;-79
2023/12/31 00:32:37;;;;;;;;;;;153.60;2252.80;;;;;;4976069;28;19976;-78
2023/12/31 00:35:03;;;;;;;;;;;128.80;2252.80;;;;;;4975909;28;20423;-78
2023/12/31 00:37:29;;;;;;;;;;;128.90;2252.80;;;;;;4976050;28;20261;-78
2023/12/31 00:39:54;;;;;;;;;;;128.90;2252.80;;;;;;4958800;28;19906;-78
2023/12/31 00:42:20;;;;;;;;;;;128.90;2252.80;;;;;;4974969;28;19950;-78
2023/12/31 00:44:46;;;;;;;;;;;128.90;2252.80;;;;;;4975274;28;19914;-78
2023/12/31 00:47:11;;;;;;;;;;;128.70;2252.80;;;;;;4957370;28;20383;-78
2023/12/31 00:49:37;;;;;;;;;;;128.60;2252.80;;;;;;4976045;28;19914;-78
2023/12/31 00:52:03;;;;;;;;;;;128.60;2252.80;;;;;;4959060;28;19912;-79
2023/12/31 00:54:29;;;;;;;;;;;128.00;2252.80;;;;;;4975964;28;19996;-80
2023/12/31 00:56:54;;;;;;;;;;;103.20;2227.20;;;;;;4959073;28;20347;-77
2023/12/31 00:59:20;;;;;;;;;;;103.10;2227.20;;;;;;4975716;28;19906;-78
2023/12/31 01:01:46;;;;;;;;;;;103.00;2227.20;;;;;;4976002;28;20276;-78
2023/12/31 01:04:12;;;;;;;;;;;103.00;2227.20;;;;;;4976059;28;19910;-78
2023/12/31 01:06:37;;;;;;;;;;;103.10;2227.20;;;;;;4958592;28;20436;-78
2023/12/31 01:09:05;;;;;;;;;;;102.80;2227.20;;;;;;4967791;28;19906;-77
2023/12/31 01:11:31;;;;;;;;;;;102.70;2227.20;;;;;;4975862;28;20009;-78
2023/12/31 01:13:57;;;;;;;;;;;102.70;2227.20;;;;;;4958438;28;20359;-78
2023/12/31 01:16:22;;;;;;;;;;;102.70;2227.20;;;;;;4958638;28;19906;-79
2023/12/31 01:18:48;;;;;;;;;;;102.70;2227.20;;;;;;4975805;28;20271;-79
2023/12/31 01:21:14;;;;;;;;;;;102.70;2227.20;;;;;;4958263;28;20004;-77
2023/12/31 01:23:39;;;;;;;;;;;102.60;2227.20;;;;;;4975832;28;19918;-77
2023/12/31 01:26:05;;;;;;;;;;;102.50;2227.20;;;;;;4958125;28;19907;-78
2023/12/31 01:28:30;;;;;;;;;;;102.60;2227.20;;;;;;4974073;28;19906;-79
2023/12/31 01:30:56;;;;;;;;;;;102.60;2227.20;;;;;;4975310;28;20008;-79
2023/12/31 01:33:22;;;;;;;;;;;102.60;2227.20;;;;;;4958128;28;19910;-79
2023/12/31 01:35:47;;;;;;;;;;;102.60;2227.20;;;;;;4975258;28;19961;-78
2023/12/31 01:38:13;;;;;;;;;;;102.70;2227.20;;;;;;4975636;28;19910;-79
2023/12/31 01:40:38;;;;;;;;;;;102.60;2227.20;;;;;;4958252;28;19953;-77
2023/12/31 01:43:04;;;;;;;;;;;102.60;2227.20;;;;;;4975446;28;19917;-78
2023/12/31 01:45:30;;;;;;;;;;;102.70;2227.20;;;;;;4947186;28;19918;-77
2023/12/31 01:47:55;;;;;;;;;;;102.90;2227.20;;;;;;4957244;28;19913;-77
2023/12/31 01:50:21;;;;;;;;;;;102.80;2227.20;;;;;;4957249;28;19921;-78
2023/12/31 01:52:47;;;;;;;;;;;102.80;2227.20;;;;;;4958072;28;19906;-79
2023/12/31 01:55:14;;;;;;;;;;;102.80;2227.20;;;;;;4975319;28;19906;-78
2023/12/31 01:57:40;;;;;;;;;;;102.90;2227.20;;;;;;4974884;28;19993;-78
2023/12/31 02:00:06;;;;;;;;;;;102.80;2227.20;;;;;;4957776;28;19906;-78
2023/12/31 02:02:32;;;;;;;;;;;102.70;2227.20;;;;;;4974880;28;19916;-76
2023/12/31 02:04:58;;;;;;;;;;;102.90;2227.20;;;;;;4957767;28;20283;-80
2023/12/31 02:07:23;;;;;;;;;;;102.80;2227.20;;;;;;4957405;28;19909;-78
2023/12/31 02:09:50;;;;;;;;;;;102.80;2227.20;;;;;;4957300;28;19961;-79
2023/12/31 02:12:15;;;;;;;;;;;102.90;2227.20;;;;;;4957662;28;19913;-78
2023/12/31 02:14:41;;;;;;;;;;;102.80;2227.20;;;;;;4974715;28;19910;-79
2023/12/31 02:17:07;;;;;;;;;;;102.70;2227.20;;;;;;4974985;28;19910;-78
2023/12/31 02:19:32;;;;;;;;;;;102.60;2227.20;;;;;;4957577;28;19906;-78
2023/12/31 02:21:58;;;;;;;;;;;102.60;2227.20;;;;;;4957504;28;20264;-78
2023/12/31 02:24:30;;;;;;;;;;;102.50;2227.20;;;;;;4957164;28;20318;-78
2023/12/31 02:26:55;;;;;;;;;;;102.50;2227.20;;;;;;4973839;28;19910;-78
2023/12/31 02:29:21;;;;;;;;;;;102.50;2227.20;;;;;;4957675;28;20277;-80
2023/12/31 02:31:46;;;;;;;;;;;102.50;2227.20;;;;;;4974165;28;19969;-78
2023/12/31 02:34:12;;;;;;;;;;;102.50;2227.20;;;;;;4957359;28;19913;-78
2023/12/31 02:36:37;;;;;;;;;;;102.50;2227.20;;;;;;4957544;28;20008;-78
2023/12/31 02:39:03;;;;;;;;;;;102.60;2227.20;;;;;;4957240;28;20327;-80
2023/12/31 02:41:31;;;;;;;;;;;102.70;2227.20;;;;;;4976073;28;19906;-78
2023/12/31 02:43:57;;;;;;;;;;;102.80;2227.20;;;;;;4961334;28;20337;-80
2023/12/31 02:46:23;;;;;;;;;;;102.90;2227.20;;;;;;4961661;28;19910;-80
2023/12/31 02:48:48;;;;;;;;;;;102.80;2227.20;;;;;;4978967;28;20328;-80
2023/12/31 02:51:14;;;;;;;;;;;102.80;2227.20;;;;;;4968459;28;19921;-76
2023/12/31 02:53:40;;;;;;;;;;;102.90;2227.20;;;;;;4971864;28;20390;-77
2023/12/31 02:56:05;;;;;;;;;;;103.00;2227.20;;;;;;4980624;28;19906;-79
2023/12/31 02:58:31;;;;;;;;;;;103.00;2227.20;;;;;;4961435;28;20375;-78
2023/12/31 03:00:59;;;;;;;;;;;103.00;2227.20;;;;;;4961230;28;19906;-81
2023/12/31 03:03:24;;;;;;;;;;;103.00;2227.20;;;;;;4961041;28;20352;-78
2023/12/31 03:05:50;;;;;;;;;;;103.00;2227.20;;;;;;4977938;28;19906;-80
2023/12/31 03:08:15;;;;;;;;;;;103.10;2227.20;;;;;;4949046;29;19957;-78
2023/12/31 03:10:41;;;;;;;;;;;103.00;2227.20;;;;;;4977130;28;19914;-81
2023/12/31 03:13:07;;;;;;;;;;;102.90;2227.20;;;;;;4960571;28;19989;-79
2023/12/31 03:15:32;;;;;;;;;;;103.00;2227.20;;;;;;4977786;28;19914;-78
2023/12/31 03:17:58;;;;;;;;;;;103.10;2227.20;;;;;;4960761;28;19910;-78
2023/12/31 03:20:23;;;;;;;;;;;103.10;2227.20;;;;;;4977397;28;19906;-78
2023/12/31 03:22:49;;;;;;;;;;;103.20;2227.20;;;;;;4977549;28;19914;-78
2023/12/31 03:25:15;;;;;;;;;;;103.30;2227.20;;;;;;4960114;28;20296;-78
2023/12/31 03:27:40;;;;;;;;;;;128.00;2252.80;;;;;;4960623;28;19914;-78
2023/12/31 03:30:07;;;;;;;;;;;128.00;2252.80;;;;;;4977338;28;19910;-79
2023/12/31 03:32:33;;;;;;;;;;;128.10;2252.80;;;;;;4977864;28;19984;-78
2023/12/31 03:34:58;;;;;;;;;;;128.30;2252.80;;;;;;4977957;28;20351;-78
2023/12/31 03:37:24;;;;;;;;;;;128.50;2252.80;;;;;;4960386;28;19965;-78
2023/12/31 03:39:51;;;;;;;;;;;128.60;2252.80;;;;;;4960281;28;19910;-80
2023/12/31 03:42:17;;;;;;;;;;;128.60;2252.80;;;;;;4960216;28;19929;-78
2023/12/31 03:44:43;;;;;;;;;;;128.50;2252.80;;;;;;4958918;28;20352;-79
2023/12/31 03:47:09;;;;;;;;;;;128.70;2252.80;;;;;;4959939;28;19906;-79
2023/12/31 03:49:34;;;;;;;;;;;128.80;2252.80;;;;;;4977289;28;19906;-78
2023/12/31 03:52:00;;;;;;;;;;;128.80;2252.80;;;;;;4959105;28;19913;-78
2023/12/31 03:54:25;;;;;;;;;;;153.60;2252.80;;;;;;4959764;28;19910;-78
2023/12/31 03:56:51;;;;;;;;;;;153.70;2252.80;;;;;;4977262;28;19960;-80
2023/12/31 03:59:17;;;;;;;;;;;153.80;2252.80;;;;;;4959886;28;19906;-78
2023/12/31 04:01:43;;;;;;;;;;;153.90;2252.80;;;;;;4960083;28;19917;-78
2023/12/31 04:04:09;;;;;;;;;;;153.90;2252.80;;;;;;4959947;28;19906;-79
2023/12/31 04:06:34;;;;;;;;;;;153.90;2252.80;;;;;;4959709;28;19996;-78
2023/12/31 04:09:00;;;;;;;;;;;153.80;2252.80;;;;;;4959647;28;20257;-78
2023/12/31 04:11:25;;;;;;;;;;;153.60;2252.80;;;;;;4958870;28;19914;-80
2023/12/31 04:13:51;;;;;;;;;;;153.70;2252.80;;;;;;4959594;28;19914;-77
2023/12/31 04:16:17;;;;;;;;;;;153.80;2252.80;;;;;;4975805;28;20350;-79
2023/12/31 04:18:42;;;;;;;;;;;153.80;2252.80;;;;;;4959592;28;19937;-78
2023/12/31 04:21:08;;;;;;;;;;;153.80;2252.80;;;;;;4975554;28;20280;-78
2023/12/31 04:23:33;;;;;;;;;;;128.90;2252.80;;;;;;4959082;28;20012;-79
2023/12/31 04:25:59;;;;;;;;;;;128.80;2252.80;;;;;;4959702;28;20356;-78
2023/12/31 04:28:25;;;;;;;;;;;128.90;2252.80;;;;;;4976683;28;20060;-81
2023/12/31 04:30:51;;;;;;;;;;;128.80;2252.80;;;;;;4976796;28;20323;-81
2023/12/31 04:33:16;;;;;;;;;;;128.60;2252.80;;;;;;4976646;28;19910;-77
2023/12/31 04:35:42;;;;;;;;;;;128.70;2252.80;;;;;;4959657;28;20384;-78
2023/12/31 04:38:08;;;;;;;;;;;128.40;2252.80;;;;;;4959263;28;19906;-79
2023/12/31 04:40:33;;;;;;;;;;;128.00;2252.80;;;;;;4958827;28;19953;-78
2023/12/31 04:42:59;;;;;;;;;;;103.20;2227.20;;;;;;4976002;28;20280;-79
2023/12/31 04:45:24;;;;;;;;;;;103.00;2227.20;;;;;;4959253;28;19974;-81
2023/12/31 04:47:50;;;;;;;;;;;102.90;2227.20;;;;;;4958769;28;19994;-80
2023/12/31 04:50:16;;;;;;;;;;;102.80;2227.20;;;;;;4958951;28;20016;-78
2023/12/31 04:52:41;;;;;;;;;;;102.70;2227.20;;;;;;4976484;28;20356;-79
2023/12/31 04:55:07;;;;;;;;;;;102.60;2227.20;;;;;;4959117;28;20429;-79
2023/12/31 04:57:33;;;;;;;;;;;102.70;2227.20;;;;;;4959084;28;19956;-79
2023/12/31 04:59:58;;;;;;;;;;;102.70;2227.20;;;;;;4975289;28;19914;-78
2023/12/31 05:02:24;;;;;;;;;;;102.80;2227.20;;;;;;4958988;28;19906;-78
2023/12/31 05:04:49;;;;;;;;;;;103.00;2227.20;;;;;;4958525;28;20078;-79
2023/12/31 05:07:15;;;;;;;;;;;103.20;2227.20;;;;;;4958749;28;20392;-79
2023/12/31 05:09:40;;;;;;;;;;;103.30;2227.20;;;;;;4958174;28;19917;-82
2023/12/31 05:12:06;;;;;;;;;;;128.00;2252.80;;;;;;4958749;28;19906;-79
2023/12/31 05:14:32;;;;;;;;;;;103.30;2227.20;;;;;;4958049;28;19964;-81
2023/12/31 05:16:57;;;;;;;;;;;103.20;2227.20;;;;;;4958088;28;20313;-78
2023/12/31 05:19:23;;;;;;;;;;;103.30;2227.20;;;;;;4976093;28;19906;-78
2023/12/31 05:21:49;;;;;;;;;;;103.30;2227.20;;;;;;4958310;28;19906;-79
2023/12/31 05:24:14;;;;;;;;;;;128.00;2252.80;;;;;;4958278;28;19991;-78
2023/12/31 05:26:40;;;;;;;;;;;128.00;2252.80;;;;;;4958839;28;19917;-78
2023/12/31 05:29:06;;;;;;;;;;;128.10;2252.80;;;;;;4958658;28;19906;-78
2023/12/31 05:31:31;;;;;;;;;;;128.00;2252.80;;;;;;4958494;28;20350;-78
2023/12/31 05:33:57;;;;;;;;;;;103.00;2227.20;;;;;;4974322;28;19906;-79
2023/12/31 05:36:23;;;;;;;;;;;102.60;2227.20;;;;;;4958234;28;20276;-80
2023/12/31 05:38:48;;;;;;;;;;;102.40;2227.20;;;;;;4958162;28;19906;-79
2023/12/31 05:41:14;;;;;;;;;;;77.70;2227.20;;;;;;4957666;28;19913;-77
2023/12/31 05:43:40;;;;;;;;;;;77.70;2227.20;;;;;;4975450;28;19914;-78
2023/12/31 05:46:05;;;;;;;;;;;77.70;2227.20;;;;;;4975225;28;19914;-77
2023/12/31 05:48:31;;;;;;;;;;;102.40;2227.20;;;;;;4963728;28;19906;-77
2023/12/31 05:50:56;;;;;;;;;;;102.40;2227.20;;;;;;4956158;28;19914;-77
2023/12/31 05:53:22;;;;;;;;;;;102.40;2227.20;;;;;;4975512;28;19921;-78
2023/12/31 05:55:47;;;;;;;;;;;77.50;2227.20;;;;;;4974716;28;19937;-77
2023/12/31 05:58:13;;;;;;;;;;;77.70;2227.20;;;;;;4951772;28;19906;-81
2023/12/31 06:00:39;;;;;;;;;;;102.60;2227.20;;;;;;4956720;28;19945;-77
2023/12/31 06:03:05;;;;;;;;;;;102.60;2227.20;;;;;;4975066;28;20315;-78
2023/12/31 06:05:30;;;;;;;;;;;102.80;2227.20;;;;;;4974377;28;19913;-79
2023/12/31 06:07:56;;;;;;;;;;;102.80;2227.20;;;;;;4961890;28;19944;-76
2023/12/31 06:10:22;;;;;;;;;;;102.60;2227.20;;;;;;4972219;28;20006;-76
2023/12/31 06:12:47;;;;;;;;;;;102.40;2227.20;;;;;;4960397;28;19949;-80
2023/12/31 06:15:13;;;;;;;;;;;77.70;2227.20;;;;;;4972709;28;19914;-78
2023/12/31 06:17:39;;;;;;;;;;;77.60;2227.20;;;;;;4955487;28;19917;-78
2023/12/31 06:20:06;;;;;;;;;;;77.50;2227.20;;;;;;4974663;28;19914;-78
2023/12/31 06:22:31;;;;;;;;;;;77.60;2227.20;;;;;;4956682;28;19910;-78
2023/12/31 06:24:57;;;;;;;;;;;77.70;2227.20;;;;;;4957293;28;19910;-81
2023/12/31 06:27:24;;;;;;;;;;;102.40;2227.20;;;;;;4974511;28;19913;-78
2023/12/31 06:29:50;;;;;;;;;;;77.70;2227.20;;;;;;4974926;28;19917;-78
2023/12/31 06:32:16;;;;;;;;;;;77.70;2227.20;;;;;;4951597;28;19921;-78
2023/12/31 06:34:42;;;;;;;;;;;77.70;2227.20;;;;;;4956953;28;19954;-78
2023/12/31 06:37:07;;;;;;;;;;;77.60;2227.20;;;;;;4974974;28;19906;-76
2023/12/31 06:39:33;;;;;;;;;;;77.60;2227.20;;;;;;4966818;28;19913;-77
2023/12/31 06:41:58;;;;;;;;;;;102.40;2227.20;;;;;;4963483;28;20375;-77
2023/12/31 06:44:24;;;;;;;;;;;77.60;2227.20;;;;;;4975102;28;19925;-80
2023/12/31 06:46:50;;;;;;;;;;;77.50;2227.20;;;;;;4975673;28;20370;-77
2023/12/31 06:49:15;;;;;;;;;;;77.50;2227.20;;;;;;4975993;28;19937;-79
2023/12/31 06:51:42;;;;;;;;;;;77.60;2227.20;;;;;;4956733;28;19914;-78
2023/12/31 06:54:08;;;;;;;;;;;77.70;2227.20;;;;;;4954238;28;19910;-78
2023/12/31 06:56:34;;;;;;;;;;;102.50;2227.20;;;;;;4973665;28;19910;-77
2023/12/31 06:59:00;;;;;;;;;;;102.80;2227.20;;;;;;4957009;28;19906;-76
2023/12/31 07:01:25;;;;;;;;;;;102.80;2227.20;;;;;;4974263;28;19906;-78
2023/12/31 07:03:51;;;;;;;;;;;102.90;2227.20;;;;;;4973825;28;19953;-76
2023/12/31 07:06:16;;;;;;;;;;;103.00;2227.20;;;;;;4973850;28;20268;-76
2023/12/31 07:08:42;;;;;;;;;;;102.90;2227.20;;;;;;4955727;28;20404;-76
2023/12/31 07:11:08;;;;;;;;;;;102.90;2227.20;;;;;;4973718;28;19977;-77
2023/12/31 07:13:33;;;;;;;;;;;102.90;2227.20;;;;;;4956125;28;19914;-78
2023/12/31 07:15:59;;;;;;;;;;;103.10;2227.20;;;;;;4959250;28;19906;-77
2023/12/31 07:18:25;;;;;;;;;;;128.00;2252.80;;;;;;4973574;28;19906;-77
2023/12/31 07:20:54;;;;;;;;;;;103.30;2227.20;;;;;;4956326;28;19913;-79
2023/12/31 07:23:20;;;;;;;;;;;103.30;2227.20;;;;;;4955981;28;20374;-76
2023/12/31 07:25:46;;;;;;;;;;;103.30;2227.20;;;;;;4956388;28;19910;-81
2023/12/31 07:28:11;;;;;;;;;;;103.30;2227.20;;;;;;4957230;28;20440;-79
2023/12/31 07:30:37;;;;;;;;;;;128.00;2252.80;;;;;;4959136;28;19918;-80
2023/12/31 07:33:03;;;;;;;;;;;128.10;2252.80;;;;;;4959856;28;20363;-79
2023/12/31 07:35:31;;;;;;;;;;;128.10;2252.80;;;;;;4960543;28;19957;-80
2023/12/31 07:37:56;;;;;;;;;;;128.20;2252.80;;;;;;4960080;28;20356;-80
2023/12/31 07:40:22;;;;;;;;;;;128.40;2252.80;;;;;;4977568;28;19917;-79
2023/12/31 07:42:49;;;;;;;;;;;128.60;2252.80;;;;;;4976884;28;19906;-80
2023/12/31 07:45:15;;;;;;;;;;;;;;;;;;4976521;28;19914;-79
2023/12/31 07:47:42;;;;;;;;;;;153.60;2252.80;;;;;;4949259;29;19910;-80
2023/12/31 07:50:08;;;;;;;;;;;153.80;2252.80;;;;;;4974184;28;19946;-83
2023/12/31 07:52:33;;;;;;;;;;;154.00;2252.80;;;;;;4959060;28;19906;-81
2023/12/31 07:54:59;;;;;;;;;;;154.10;2252.80;;;;;;4959738;28;19913;-81
2023/12/31 07:57:25;;;;;;;;;;;154.20;2252.80;;;;;;4960414;28;19918;-85
2023/12/31 07:59:50;;;;;;;;;;;154.20;2252.80;;;;;;4959969;28;19913;-81
2023/12/31 08:02:16;;;;;;;;;;;154.00;2252.80;;;;;;4959530;28;19906;-80
2023/12/31 08:04:42;;;;;;;;;;;154.40;2252.80;;;;;;4959266;28;19949;-79
2023/12/31 08:07:08;;;;;;;;;;;154.40;2252.80;;;;;;4959330;28;19910;-80
2023/12/31 08:09:34;;;;;;;;;;;154.40;1945.60;;;;;;4968750;28;19953;-82
2023/12/31 08:11:59;;;;;;;;;;;154.40;2099.20;;;;;;4959066;28;19906;-80
2023/12/31 08:14:25;;;;;;;;;;;154.40;2252.80;;;;;;4976481;28;19954;-79
2023/12/31 08:16:50;;;;;;;;;;;154.40;2252.80;;;;;;4958558;28;19917;-78
2023/12/31 08:19:16;;;;;;;;;;;154.50;2252.80;;;;;;4958860;28;20416;-78
2023/12/31 08:21:42;;;;;;;;;;;154.50;2252.80;;;;;;4976658;28;20356;-79
2023/12/31 08:24:07;;;;;;;;;;;179.20;2252.80;;;;;;4957152;28;19929;-78
2023/12/31 08:26:35;;;;;;;;;;;179.40;2252.80;;;;;;4958264;28;20248;-79
2023/12/31 08:29:01;;;;;;;;;;;179.40;2252.80;;;;;;4976208;28;19906;-79
2023/12/31 08:31:27;;;;;;;;;;;179.40;2252.80;;;;;;4958686;28;19987;-79
2023/12/31 08:33:52;;;;;;;;;;;179.60;2252.80;;;;;;4958701;28;19910;-82
2023/12/31 08:36:18;;;;;;;;;;;179.70;2252.80;;;;;;4958301;28;20269;-79
2023/12/31 08:38:43;;;;;;;;;;;179.80;2252.80;;;;;;4958055;28;20332;-78
2023/12/31 08:41:09;;;;;;;;;;;179.90;2252.80;;;;;;4958432;28;20435;-84
2023/12/31 08:43:35;;;;;;;;;;;180.10;2252.80;;;;;;4958537;28;19914;-81
2023/12/31 08:46:00;;;;;;;;;;;204.80;2252.80;;;;;;4958397;28;19910;-79
2023/12/31 08:48:26;;;;;;;;;;;205.00;2252.80;;;;;;4963819;28;20276;-81
2023/12/31 08:50:52;;;;;;;;;;;205.20;2252.80;;;;;;4957844;28;20287;-77
2023/12/31 08:53:19;;;;;;;;;;;205.30;2252.80;;;;;;4975514;28;19910;-78
2023/12/31 08:55:44;;;;;;;;;;;205.50;2252.80;;;;;;4958449;28;19906;-79
2023/12/31 08:58:12;;;;;;;;;;;205.60;2252.80;;;;;;4975266;28;19912;-78
2023/12/31 09:00:37;;;;;;;;;;;205.70;2252.80;;;;;;4975805;28;19929;-78
2023/12/31 09:03:03;;;;;;;;;;;230.40;2252.80;;;;;;4957771;28;20287;-78
2023/12/31 09:05:30;;;;;;;;;;;230.50;2099.20;;;;;;4954813;28;19945;-77
2023/12/31 09:07:56;;;;;;;;;;;230.60;2252.80;;;;;;4975047;28;19997;-77
2023/12/31 09:10:21;;;;;;;;;;;230.70;2048.00;;;;;;4974967;28;20061;-78
2023/12/31 09:12:47;;;;;;;;;;;230.70;2099.20;;;;;;4974965;28;20025;-79
2023/12/31 09:15:13;;;;;;;;;;;230.80;2252.80;;;;;;4974846;28;19914;-77
2023/12/31 09:17:39;;;;;;;;;;;230.90;2252.80;;;;;;4975317;28;19910;-81
2023/12/31 09:20:06;;;;;;;;;;;231.00;2252.80;;;;;;4957554;28;19921;-77
2023/12/31 09:22:32;;;;;;;;;;;231.00;2252.80;;;;;;4957384;28;19922;-79
2023/12/31 09:24:58;;;;;;;;;;;231.20;2252.80;;;;;;4956176;28;19910;-80
2023/12/31 09:27:23;;;;;;;;;;;231.30;2252.80;;;;;;4956504;28;20299;-79
2023/12/31 09:29:49;;;;;;;;;;;256.00;2252.80;;;;;;4956889;28;19920;-79
2023/12/31 09:32:15;;;;;;;;;;;256.20;2252.80;;;;;;4974854;28;19918;-79
2023/12/31 09:34:41;;;;;;;;;;;256.40;2252.80;;;;;;4957563;28;19913;-79
2023/12/31 09:37:06;;;;;;;;;;;256.60;2252.80;;;;;;4975285;28;20263;-78
2023/12/31 09:39:32;;;;;;;;;;;256.90;2252.80;;;;;;4956706;28;19913;-79
2023/12/31 09:42:01;;;;;;;;;;;281.60;2278.40;;;;;;4957636;28;19910;-78
2023/12/31 09:44:27;;;;;;;;;;;281.80;2278.40;;;;;;4956444;28;20363;-78
2023/12/31 09:46:55;;;;;;;;;;;281.80;2278.40;;;;;;4958229;28;19921;-77
2023/12/31 09:49:21;;;;;;;;;;;282.10;2278.40;;;;;;4971384;28;19910;-79
2023/12/31 09:51:47;;;;;;;;;;;282.30;2278.40;;;;;;4959766;28;19922;-83
2023/12/31 09:54:13;;;;;;;;;;;282.40;2278.40;;;;;;4980838;28;19921;-80
2023/12/31 09:56:39;;;;;;;;;;;307.20;2304.00;;;;;;4997662;28;19895;-80
2023/12/31 09:59:04;;;;;;;;;;;307.50;2304.00;;;;;;4958691;28;19906;-82
2023/12/31 10:01:30;;;;;;;;;;;307.70;2304.00;;;;;;4975359;28;19960;-81
2023/12/31 10:03:56;;;;;;;;;;;307.90;2304.00;;;;;;4969327;28;19917;-83
2023/12/31 10:06:22;;;;;;;;;;;332.90;2329.60;;;;;;4975240;28;19997;-81
2023/12/31 10:08:48;;;;;;;;;;;333.00;2329.60;;;;;;4949319;28;20407;-80
2023/12/31 10:11:14;;;;;;;;;;;332.90;2329.60;;;;;;4974127;28;19962;-79
2023/12/31 10:13:40;;;;;;;;;;;333.10;2329.60;;;;;;4973740;28;20001;-78
2023/12/31 10:16:12;;;;;;;;;;;333.40;2329.60;;;;;;4974276;28;19906;-78
2023/12/31 10:18:38;;;;;;;;;;;333.50;2329.60;;;;;;4956803;28;19906;-78
2023/12/31 10:21:04;;;;;;;;;;;333.60;2329.60;;;;;;4957263;28;20356;-78
2023/12/31 10:23:29;;;;;;;;;;;333.60;2329.60;;;;;;4974681;28;19922;-78
2023/12/31 10:25:57;;;;;;;;;;;333.60;2329.60;;;;;;4964113;28;19976;-79
2023/12/31 10:28:22;;;;;;;;;;;333.60;2329.60;;;;;;4974277;28;19987;-80
2023/12/31 10:30:48;;;;;;;;;;;333.70;2329.60;;;;;;4973786;28;19914;-81
2023/12/31 10:33:15;;;;;;;;;;;358.50;2329.60;;;;;;4956948;28;19907;-81
2023/12/31 10:35:41;;;;;;;;;;;358.70;2329.60;;;;;;4953424;28;19906;-79
2023/12/31 10:38:07;;;;;;;;;;;358.80;2329.60;;;;;;4956762;28;20398;-80
2023/12/31 10:40:33;;;;;;;;;;;358.90;2329.60;;;;;;4956954;28;19913;-79
2023/12/31 10:42:59;;;;;;;;;;;359.10;2329.60;;;;;;4956448;28;19906;-77
2023/12/31 10:45:26;;;;;;;;;;;359.30;2329.60;;;;;;4956781;28;19917;-78
2023/12/31 10:47:56;;;;;;;;;;;384.00;2329.60;;;;;;4974302;28;19910;-78
2023/12/31 10:50:23;;;;;;;;;;;384.30;2329.60;;;;;;4956298;28;19936;-79
2023/12/31 10:52:53;;;;;;;;;;;384.40;2329.60;;;;;;4956504;28;19906;-79
2023/12/31 10:55:19;;;;;;;;;;;384.60;2329.60;;;;;;4948875;28;19913;-80
2023/12/31 10:57:45;;;;;;;;;;;384.70;2329.60;;;;;;4974089;28;20344;-81
2023/12/31 11:00:11;;;;;;;;;;;;;;;;;;4973638;28;20316;-81
2023/12/31 11:02:38;;;;;;;;;;;409.70;2355.20;;;;;;4976205;28;19910;-80
2023/12/31 11:05:05;;;;;;;;;;;384.90;2329.60;;;;;;4977718;28;19910;-79
2023/12/31 11:07:34;;;;;;;;;;;384.70;2329.60;;;;;;4960635;28;19906;-81
2023/12/31 11:09:59;;;;;;;;;;;384.70;2329.60;;;;;;4966679;28;20008;-79
2023/12/31 11:12:26;;;;;;;;;;;384.70;2329.60;;;;;;4960530;28;20347;-80
2023/12/31 11:15:13;;;;;;;;;;;384.70;2329.60;;;;;;4960009;28;20033;-80
2023/12/31 11:18:03;;;;;;;;;;;384.70;2329.60;;;;;;4957025;28;19954;-80
2023/12/31 11:20:47;;;;;;;;;;;384.60;2329.60;;;;;;4883418;29;19939;-76
2023/12/31 11:23:17;;;;;;;;;;;384.40;2329.60;;;;;;4883702;29;20345;-82
2023/12/31 11:25:46;;;;;;;;;;;384.50;2329.60;;;;;;4883819;29;19915;-82
2023/12/31 11:28:11;;;;;;;;;;;384.40;2329.60;;;;;;4898580;29;19907;-81
2023/12/31 11:30:53;;;;;;;;;;;384.50;2329.60;;;;;;4883726;29;19920;-83
2023/12/31 11:33:19;;;;;;;;;;;384.50;2329.60;;;;;;4899327;29;19955;-82
2023/12/31 11:35:45;;;;;;;;;;;384.50;2329.60;;;;;;4899613;29;19911;-81
2023/12/31 11:38:11;;;;;;;;;;;384.40;2329.60;;;;;;4901471;29;19930;-81
2023/12/31 11:40:37;;;;;;;;;;;384.40;2329.60;;;;;;4898942;29;20286;-82
2023/12/31 11:43:16;;;;;;;;;;;384.40;2329.60;;;;;;4883690;29;19950;-81
2023/12/31 11:45:47;;;;;;;;;;;384.40;2329.60;;;;;;4899037;29;19967;-81
2023/12/31 11:48:25;;;;;;;;;;;384.60;2329.60;;;;;;4883911;29;20041;-83
2023/12/31 11:51:03;;;;;;;;;;;384.40;2329.60;;;;;;4878290;29;19919;-82
2023/12/31 11:53:46;;;;;;;;;;;384.40;2329.60;;;;;;4896992;29;20039;-82
2023/12/31 11:56:12;;;;;;;;;;;384.30;2329.60;;;;;;4899147;29;19907;-82
2023/12/31 11:58:39;;;;;;;;;;;384.50;2329.60;;;;;;4976341;28;19913;-86
2023/12/31 12:01:04;;;;;;;;;;;384.40;2329.60;;;;;;4977111;28;19906;-82
2023/12/31 12:03:30;;;;;;;;;;;384.20;2329.60;;;;;;4959234;28;19913;-87
2023/12/31 12:05:56;;;;;;;;;;;384.30;2329.60;;;;;;4976776;28;19910;-86
2023/12/31 12:08:21;;;;;;;;;;;384.20;2329.60;;;;;;4959647;28;19906;-81
2023/12/31 12:10:47;;;;;;;;;;;384.20;2329.60;;;;;;4959608;28;20364;-81
2023/12/31 12:13:13;;;;;;;;;;;384.20;2329.60;;;;;;4966954;28;19965;-81
2023/12/31 12:15:39;;;;;;;;;;;384.20;2329.60;;;;;;4959942;28;19916;-80
2023/12/31 12:18:14;;;;;;;;;;;384.20;2329.60;;;;;;4976839;28;19914;-81
2023/12/31 12:20:40;;;;;;;;;;;384.10;2329.60;;;;;;4959455;28;19906;-80
2023/12/31 12:23:06;;;;;;;;;;;384.00;2329.60;;;;;;4958977;28;19918;-80
2023/12/31 12:25:31;;;;;;;;;;;384.00;2329.60;;;;;;4959074;28;20395;-80
2023/12/31 12:27:57;;;;;;;;;;;384.00;2329.60;;;;;;4958292;28;19913;-80
2023/12/31 12:30:26;;;;;;;;;;;359.30;2329.60;;;;;;4958493;28;19922;-80
2023/12/31 12:32:51;;;;;;;;;;;359.30;2329.60;;;;;;4955928;28;19913;-81
2023/12/31 12:35:17;;;;;;;;;;;359.20;2329.60;;;;;;4958341;28;19925;-80
2023/12/31 12:37:44;;;;;;;;;;;359.20;2329.60;;;;;;4959576;28;20000;-80
2023/12/31 12:40:19;;;;;;;;;;;359.20;2329.60;;;;;;4958815;28;20367;-81
2023/12/31 12:42:48;;;;;;;;;;;359.10;2329.60;;;;;;4959020;28;19906;-81
2023/12/31 12:45:15;;;;;;;;;;;359.20;2329.60;;;;;;4959050;28;19990;-80
2023/12/31 12:47:42;;;;;;;;;;;359.10;2329.60;;;;;;4971773;28;19906;-80
2023/12/31 12:50:09;;;;;;;;;;;359.00;2329.60;;;;;;4958803;28;19910;-81
2023/12/31 12:52:34;;;;;;;;;;;359.00;2329.60;;;;;;4958825;28;19973;-80
2023/12/31 12:55:00;;;;;;;;;;;359.00;2329.60;;;;;;4959563;28;20352;-81
2023/12/31 12:57:26;;;;;;;;;;;359.00;2329.60;;;;;;4959131;28;20355;-81
2023/12/31 12:59:52;;;;;;;;;;;358.90;2329.60;;;;;;4960488;28;19907;-80
2023/12/31 13:02:17;;;;;;;;;;;358.70;2329.60;;;;;;4974503;28;19910;-78
2023/12/31 13:04:45;;;;;;;;;;;358.90;2329.60;;;;;;4963213;28;19914;-75
2023/12/31 13:07:11;;;;;;;;;;;358.90;2329.60;;;;;;4987164;28;19906;-77
2023/12/31 13:09:36;;;;;;;;;;;358.90;2329.60;;;;;;4959760;28;19906;-80
2023/12/31 13:12:03;;;;;;;;;;;358.50;2329.60;;;;;;4958778;28;20360;-81
2023/12/31 13:14:28;;;;;;;;;;;358.90;2329.60;;;;;;4958290;28;20004;-80
2023/12/31 13:16:54;;;;;;;;;;;358.90;2329.60;;;;;;4975744;28;19941;-80
2023/12/31 13:19:20;;;;;;;;;;;358.80;2329.60;;;;;;4958485;28;20364;-81
2023/12/31 13:21:46;;;;;;;;;;;358.80;2329.60;;;;;;4958242;28;19906;-80
2023/12/31 13:24:11;;;;;;;;;;;358.70;2329.60;;;;;;4957523;28;20017;-79
2023/12/31 13:26:37;;;;;;;;;;;358.70;2329.60;;;;;;4975118;28;19910;-80
2023/12/31 13:29:02;;;;;;;;;;;358.70;2329.60;;;;;;4957726;28;19916;-80
2023/12/31 13:31:29;;;;;;;;;;;358.60;2329.60;;;;;;4958017;28;19918;-80
2023/12/31 13:33:54;;;;;;;;;;;358.60;2329.60;;;;;;4957201;28;19929;-80
2023/12/31 13:36:20;;;;;;;;;;;358.50;2329.60;;;;;;4970851;28;20415;-80